Time;durP1;ratioP1;P1;durP2;ratioP2;P2;SDS_P1;SDS_P2;PMS_P1;PMS_P2;Temp;Humidity;BMP_temperature;BMP_pressure;BME280_temperature;BME280_humidity;BME280_pressure;Samples;Min_cycle;Max_cycle;Signal;HPM_P1;HPM_P2
2023/12/01 00:00:20;;;;;;;;;;;;;;;;;;4149275;28;19922;-65
2023/12/01 00:02:21;;;;;;;;;;;;;;;;;;4151055;28;20416;-65
2023/12/01 00:04:23;;;;;;;;;;;;;;;;;;4150916;28;19932;-65
2023/12/01 00:06:24;;;;;;;;;;;;;;;;;;4150936;28;19921;-66
2023/12/01 00:08:29;;;;;;;;;;;;;;;;;;4155291;28;19928;-65
2023/12/01 00:10:31;;;;;;;;;;;;;;;;;;4167330;28;19921;-65
2023/12/01 00:12:33;;;;;;;;;;;;;;;;;;4167661;28;19924;-65
2023/12/01 00:14:34;;;;;;;;;;;;;;;;;;4167496;28;20011;-65
2023/12/01 00:16:36;;;;;;;;;;;;;;;;;;4167313;28;19921;-65
2023/12/01 00:18:37;;;;;;;;;;;;;;;;;;4167604;28;20364;-66
2023/12/01 00:20:39;;;;;;;;;;;;;;;;;;4167150;28;19927;-65
2023/12/01 00:22:40;;;;;;;;;;;;;;;;;;4150761;28;20302;-65
2023/12/01 00:24:42;;;;;;;;;;;;;;;;;;4150665;28;20016;-65
2023/12/01 00:26:45;;;;;;;;;;;;;;;;;;4150814;28;19926;-65
2023/12/01 00:28:46;;;;;;;;;;;;;;;;;;4150663;28;20011;-65
2023/12/01 00:30:48;;;;;;;;;;;;;;;;;;4164622;28;19921;-65
2023/12/01 00:32:50;;;;;;;;;;;;;;;;;;4167208;28;20297;-65
2023/12/01 00:34:51;;;;;;;;;;;;;;;;;;4165694;28;19928;-64
2023/12/01 00:36:53;;;;;;;;;;;;;;;;;;4150196;28;19964;-65
2023/12/01 00:38:54;;;;;;;;;;;;;;;;;;4150601;28;19921;-64
2023/12/01 00:40:56;;;;;;;;;;;;;;;;;;4149577;28;19976;-64
2023/12/01 00:42:57;;;;;;;;;;;;;;;;;;4149842;28;19971;-64
2023/12/01 00:44:59;;;;;;;;;;;;;;;;;;4149574;28;20373;-65
2023/12/01 00:47:00;;;;;;;;;;;;;;;;;;4149802;28;19921;-65
2023/12/01 00:49:02;;;;;;;;;;;;;;;;;;4149677;28;19925;-65
2023/12/01 00:51:04;;;;;;;;;;;;;;;;;;4149540;28;19926;-65
2023/12/01 00:53:05;;;;;;;;;;;;;;;;;;4151095;28;19926;-65
2023/12/01 00:55:06;;;;;;;;;;;;;;;;;;4148891;28;19921;-65
2023/12/01 00:57:08;;;;;;;;;;;;;;;;;;4163346;28;19925;-65
2023/12/01 00:59:10;;;;;;;;;;;;;;;;;;4150236;28;19933;-65
2023/12/01 01:01:11;;;;;;;;;;;;;;;;;;4149957;28;19921;-65
2023/12/01 01:03:13;;;;;;;;;;;;;;;;;;4132405;28;19922;-65
2023/12/01 01:05:14;;;;;;;;;;;;;;;;;;4149736;28;19925;-65
2023/12/01 01:07:16;;;;;;;;;;;;;;;;;;4150369;28;19921;-65
2023/12/01 01:09:17;;;;;;;;;;;;;;;;;;4161592;28;20393;-65
2023/12/01 01:11:19;;;;;;;;;;;;;;;;;;4166441;28;19964;-65
2023/12/01 01:13:23;;;;;;;;;;;;;;;;;;4166463;28;19957;-65
2023/12/01 01:15:25;;;;;;;;;;;;;;;;;;4166495;28;19974;-65
2023/12/01 01:17:26;;;;;;;;;;;;;;;;;;4161345;28;19922;-65
2023/12/01 01:19:28;;;;;;;;;;;;;;;;;;4150093;28;19921;-65
2023/12/01 01:21:29;;;;;;;;;;;;;;;;;;4149972;28;20262;-65
2023/12/01 01:23:31;;;;;;;;;;;;;;;;;;4149947;28;19929;-65
2023/12/01 01:25:32;;;;;;;;;;;;;;;;;;4149726;28;19921;-65
2023/12/01 01:27:33;;;;;;;;;;;;;;;;;;4150186;28;19925;-65
2023/12/01 01:29:35;;;;;;;;;;;;;;;;;;4149841;28;19925;-65
2023/12/01 01:31:36;;;;;;;;;;;;;;;;;;4149511;28;19926;-64
2023/12/01 01:33:38;;;;;;;;;;;;;;;;;;4150198;28;19933;-65
2023/12/01 01:35:40;;;;;;;;;;;;;;;;;;4149601;28;19968;-65
2023/12/01 01:37:41;;;;;;;;;;;;;;;;;;4149594;28;20289;-65
2023/12/01 01:39:43;;;;;;;;;;;;;;;;;;4149534;28;19952;-64
2023/12/01 01:41:44;;;;;;;;;;;;;;;;;;4149771;28;19995;-65
2023/12/01 01:43:46;;;;;;;;;;;;;;;;;;4149677;28;19925;-64
2023/12/01 01:45:47;;;;;;;;;;;;;;;;;;4149326;28;20386;-65
2023/12/01 01:47:49;;;;;;;;;;;;;;;;;;4149409;28;19926;-65
2023/12/01 01:49:51;;;;;;;;;;;;;;;;;;4149319;28;19921;-65
2023/12/01 01:51:52;;;;;;;;;;;;;;;;;;4149628;28;19971;-65
2023/12/01 01:53:54;;;;;;;;;;;;;;;;;;4150291;28;20023;-65
2023/12/01 01:55:55;;;;;;;;;;;;;;;;;;4149127;28;20019;-65
2023/12/01 01:57:57;;;;;;;;;;;;;;;;;;4148806;28;19987;-65
2023/12/01 01:59:58;;;;;;;;;;;;;;;;;;4149040;28;19992;-64
2023/12/01 02:02:00;;;;;;;;;;;;;;;;;;4149033;28;19928;-65
2023/12/01 02:04:03;;;;;;;;;;;;;;;;;;4148964;28;20000;-64
2023/12/01 02:06:07;;;;;;;;;;;;;;;;;;4148853;28;19932;-65
2023/12/01 02:08:09;;;;;;;;;;;;;;;;;;4151377;28;19929;-65
2023/12/01 02:10:15;;;;;;;;;;;;;;;;;;4165568;28;20019;-65
2023/12/01 02:12:17;;;;;;;;;;;;;;;;;;4165626;28;19921;-64
2023/12/01 02:14:18;;;;;;;;;;;;;;;;;;4155725;28;19967;-64
2023/12/01 02:16:20;;;;;;;;;;;;;;;;;;4148008;28;20015;-65
2023/12/01 02:18:21;;;;;;;;;;;;;;;;;;4148996;28;19929;-64
2023/12/01 02:20:23;;;;;;;;;;;;;;;;;;4149054;28;19979;-64
2023/12/01 02:22:24;;;;;;;;;;;;;;;;;;4148912;28;19925;-65
2023/12/01 02:24:26;;;;;;;;;;;;;;;;;;4148853;28;20325;-64
2023/12/01 02:26:27;;;;;;;;;;;;;;;;;;4148784;28;19929;-65
2023/12/01 02:28:29;;;;;;;;;;;;;;;;;;4148996;28;20387;-65
2023/12/01 02:30:30;;;;;;;;;;;;;;;;;;4148969;28;19952;-65
2023/12/01 02:32:31;;;;;;;;;;;;;;;;;;4149071;28;19929;-65
2023/12/01 02:34:33;;;;;;;;;;;;;;;;;;4148858;28;19929;-64
2023/12/01 02:36:34;;;;;;;;;;;;;;;;;;4132237;28;19930;-65
2023/12/01 02:38:36;;;;;;;;;;;;;;;;;;4164026;28;19925;-64
2023/12/01 02:40:42;;;;;;;;;;;;;;;;;;4163363;28;20308;-64
2023/12/01 02:42:44;;;;;;;;;;;;;;;;;;4163448;28;19929;-64
2023/12/01 02:44:45;;;;;;;;;;;;;;;;;;4163291;28;19955;-64
2023/12/01 02:46:47;;;;;;;;;;;;;;;;;;4163311;28;19925;-64
2023/12/01 02:48:49;;;;;;;;;;;;;;;;;;4163524;28;19921;-64
2023/12/01 02:50:51;;;;;;;;;;;;;;;;;;4132724;28;19926;-64
2023/12/01 02:52:52;;;;;;;;;;;;;;;;;;4146959;28;19987;-64
2023/12/01 02:54:54;;;;;;;;;;;;;;;;;;4164015;28;19932;-64
2023/12/01 02:56:55;;;;;;;;;;;;;;;;;;4147145;28;20444;-64
2023/12/01 02:58:57;;;;;;;;;;;;;;;;;;4164768;28;20434;-65
2023/12/01 03:01:00;;;;;;;;;;;;;;;;;;4164241;28;20450;-64
2023/12/01 03:03:01;;;;;;;;;;;;;;;;;;4164555;28;19978;-65
2023/12/01 03:05:03;;;;;;;;;;;;;;;;;;4164884;28;19924;-64
2023/12/01 03:07:04;;;;;;;;;;;;;;;;;;4164562;28;19929;-65
2023/12/01 03:09:16;;;;;;;;;;;;;;;;;;4164412;28;19960;-65
2023/12/01 03:11:18;;;;;;;;;;;;;;;;;;4149051;28;19969;-64
2023/12/01 03:13:19;;;;;;;;;;;;;;;;;;4148457;28;19921;-64
2023/12/01 03:15:21;;;;;;;;;;;;;;;;;;4148456;28;20032;-64
2023/12/01 03:17:25;;;;;;;;;;;;;;;;;;4148413;28;19991;-64
2023/12/01 03:19:27;;;;;;;;;;;;;;;;;;4148390;28;19925;-64
2023/12/01 03:21:29;;;;;;;;;;;;;;;;;;4148260;28;19921;-65
2023/12/01 03:23:30;;;;;;;;;;;;;;;;;;4148304;28;19971;-64
2023/12/01 03:25:33;;;;;;;;;;;;;;;;;;4148206;28;19963;-65
2023/12/01 03:27:34;;;;;;;;;;;;;;;;;;4149410;28;19975;-64
2023/12/01 03:29:36;;;;;;;;;;;;;;;;;;4151732;28;20273;-64
2023/12/01 03:31:37;;;;;;;;;;;;;;;;;;4151558;28;19926;-64
2023/12/01 03:33:38;;;;;;;;;;;;;;;;;;4151440;28;19968;-65
2023/12/01 03:35:40;;;;;;;;;;;;;;;;;;4151676;28;20289;-64
2023/12/01 03:37:41;;;;;;;;;;;;;;;;;;4151535;28;19928;-65
2023/12/01 03:39:43;;;;;;;;;;;;;;;;;;4151576;28;19928;-65
2023/12/01 03:41:44;;;;;;;;;;;;;;;;;;4151603;28;19969;-64
2023/12/01 03:43:46;;;;;;;;;;;;;;;;;;4151292;28;19987;-64
2023/12/01 03:45:47;;;;;;;;;;;;;;;;;;4151390;28;19921;-65
2023/12/01 03:47:49;;;;;;;;;;;;;;;;;;4151508;28;19928;-64
2023/12/01 03:49:51;;;;;;;;;;;;;;;;;;4151438;28;19925;-62
2023/12/01 03:51:52;;;;;;;;;;;;;;;;;;4151228;28;19921;-61
2023/12/01 03:53:54;;;;;;;;;;;;;;;;;;4159331;28;19921;-62
2023/12/01 03:55:55;;;;;;;;;;;;;;;;;;4167744;28;19921;-61
2023/12/01 03:57:57;;;;;;;;;;;;;;;;;;4161264;28;19921;-62
2023/12/01 03:59:58;;;;;;;;;;;;;;;;;;4167547;28;19925;-61
2023/12/01 04:02:00;;;;;;;;;;;;;;;;;;4167119;28;19925;-61
2023/12/01 04:04:01;;;;;;;;;;;;;;;;;;4167122;28;19921;-61
2023/12/01 04:06:03;;;;;;;;;;;;;;;;;;4164039;28;19956;-61
2023/12/01 04:08:04;;;;;;;;;;;;;;;;;;4152614;28;19956;-61
2023/12/01 04:10:10;;;;;;;;;;;;;;;;;;4167312;28;20296;-62
2023/12/01 04:12:12;;;;;;;;;;;;;;;;;;4167513;28;19929;-61
2023/12/01 04:14:13;;;;;;;;;;;;;;;;;;4167441;28;20447;-61
2023/12/01 04:16:15;;;;;;;;;;;;;;;;;;4167351;28;20296;-62
2023/12/01 04:18:16;;;;;;;;;;;;;;;;;;4167116;28;19921;-62
2023/12/01 04:20:21;;;;;;;;;;;;;;;;;;4162233;28;19921;-61
2023/12/01 04:22:23;;;;;;;;;;;;;;;;;;4151095;28;19988;-61
2023/12/01 04:24:25;;;;;;;;;;;;;;;;;;4150872;28;19929;-61
2023/12/01 04:26:28;;;;;;;;;;;;;;;;;;4150811;28;19932;-61
2023/12/01 04:28:30;;;;;;;;;;;;;;;;;;4150615;28;19925;-61
2023/12/01 04:30:31;;;;;;;;;;;;;;;;;;4150890;28;20336;-61
2023/12/01 04:32:32;;;;;;;;;;;;;;;;;;4150905;28;20309;-61
2023/12/01 04:34:34;;;;;;;;;;;;;;;;;;4150758;28;19926;-62
2023/12/01 04:36:36;;;;;;;;;;;;;;;;;;4150760;28;19995;-62
2023/12/01 04:38:37;;;;;;;;;;;;;;;;;;4150411;28;20369;-61
2023/12/01 04:40:38;;;;;;;;;;;;;;;;;;4149835;28;19922;-62
2023/12/01 04:42:40;;;;;;;;;;;;;;;;;;4150597;28;19968;-61
2023/12/01 04:44:41;;;;;;;;;;;;;;;;;;4150609;28;19926;-61
2023/12/01 04:46:43;;;;;;;;;;;;;;;;;;4150321;28;19921;-61
2023/12/01 04:48:44;;;;;;;;;;;;;;;;;;4150574;28;20297;-62
2023/12/01 04:50:46;;;;;;;;;;;;;;;;;;4150318;28;20028;-62
2023/12/01 04:52:48;;;;;;;;;;;;;;;;;;4150209;28;20392;-62
2023/12/01 04:54:49;;;;;;;;;;;;;;;;;;4166057;28;19925;-61
2023/12/01 04:56:51;;;;;;;;;;;;;;;;;;4166506;28;19921;-61
2023/12/01 04:58:53;;;;;;;;;;;;;;;;;;4166638;28;19921;-61
2023/12/01 05:00:55;;;;;;;;;;;;;;;;;;4166339;28;19928;-62
2023/12/01 05:02:57;;;;;;;;;;;;;;;;;;4157483;28;19967;-62
2023/12/01 05:04:58;;;;;;;;;;;;;;;;;;4150111;28;19921;-61
2023/12/01 05:07:00;;;;;;;;;;;;;;;;;;4150342;28;19925;-62
2023/12/01 05:09:01;;;;;;;;;;;;;;;;;;4159453;28;19921;-61
2023/12/01 05:11:04;;;;;;;;;;;;;;;;;;4165393;28;19920;-61
2023/12/01 05:13:06;;;;;;;;;;;;;;;;;;4152203;28;19977;-62
2023/12/01 05:15:15;;;;;;;;;;;;;;;;;;4150210;28;20012;-61
2023/12/01 05:17:17;;;;;;;;;;;;;;;;;;4149803;28;19964;-61
2023/12/01 05:19:18;;;;;;;;;;;;;;;;;;4149760;28;19928;-62
2023/12/01 05:21:19;;;;;;;;;;;;;;;;;;4150123;28;19922;-62
2023/12/01 05:23:21;;;;;;;;;;;;;;;;;;4150135;28;19944;-61
2023/12/01 05:25:25;;;;;;;;;;;;;;;;;;4150043;28;19926;-61
2023/12/01 05:27:28;;;;;;;;;;;;;;;;;;4132470;28;19992;-61
2023/12/01 05:29:29;;;;;;;;;;;;;;;;;;4149619;28;20444;-61
2023/12/01 05:31:31;;;;;;;;;;;;;;;;;;4149553;28;19944;-61
2023/12/01 05:33:38;;;;;;;;;;;;;;;;;;4149672;28;19928;-61
2023/12/01 05:35:39;;;;;;;;;;;;;;;;;;4149544;28;19929;-62
2023/12/01 05:37:41;;;;;;;;;;;;;;;;;;4149432;28;19925;-61
2023/12/01 05:39:42;;;;;;;;;;;;;;;;;;4156579;28;20389;-61
2023/12/01 05:41:44;;;;;;;;;;;;;;;;;;4148303;28;19921;-61
2023/12/01 05:43:45;;;;;;;;;;;;;;;;;;4149423;28;19941;-61
2023/12/01 05:45:47;;;;;;;;;;;;;;;;;;4149556;28;19925;-62
2023/12/01 05:47:48;;;;;;;;;;;;;;;;;;4149124;28;19921;-61
2023/12/01 05:49:50;;;;;;;;;;;;;;;;;;4149304;28;19972;-61
2023/12/01 05:51:51;;;;;;;;;;;;;;;;;;4149623;28;19921;-61
2023/12/01 05:53:53;;;;;;;;;;;;;;;;;;4157228;28;19928;-61
2023/12/01 05:55:57;;;;;;;;;;;;;;;;;;4165832;28;20254;-62
2023/12/01 05:57:58;;;;;;;;;;;;;;;;;;4165829;28;19928;-61
2023/12/01 06:00:00;;;;;;;;;;;;;;;;;;4149928;28;19929;-61
2023/12/01 06:02:10;;;;;;;;;;;;;;;;;;4148799;28;20040;-61
2023/12/01 06:04:13;;;;;;;;;;;;;;;;;;4148813;28;20012;-61
2023/12/01 06:06:15;;;;;;;;;;;;;;;;;;4149180;28;20288;-61
2023/12/01 06:08:17;;;;;;;;;;;;;;;;;;4152119;28;20401;-61
2023/12/01 06:10:18;;;;;;;;;;;;;;;;;;4165273;28;19975;-61
2023/12/01 06:12:20;;;;;;;;;;;;;;;;;;4164490;28;20407;-62
2023/12/01 06:14:23;;;;;;;;;;;;;;;;;;4152556;28;20369;-60
2023/12/01 06:16:24;;;;;;;;;;;;;;;;;;4151617;28;19965;-62
2023/12/01 06:18:29;;;;;;;;;;;;;;;;;;4147106;28;19928;-61
2023/12/01 06:20:34;;;;;;;;;;;;;;;;;;4130158;28;19972;-62
2023/12/01 06:22:36;;;;;;;;;;;;;;;;;;4148616;28;19931;-62
2023/12/01 06:24:37;;;;;;;;;;;;;;;;;;4148608;28;19925;-62
2023/12/01 06:26:40;;;;;;;;;;;;;;;;;;4148369;28;19975;-66
2023/12/01 06:28:41;;;;;;;;;;;;;;;;;;4147525;28;19929;-66
2023/12/01 06:30:43;;;;;;;;;;;;;;;;;;4147762;28;19921;-65
2023/12/01 06:32:45;;;;;;;;;;;;;;;;;;4148404;28;19922;-65
2023/12/01 06:34:46;;;;;;;;;;;;;;;;;;4143346;28;19922;-66
2023/12/01 06:36:48;;;;;;;;;;;;;;;;;;4148870;28;19932;-66
2023/12/01 06:38:49;;;;;;;;;;;;;;;;;;4148776;28;19922;-66
2023/12/01 06:40:51;;;;;;;;;;;;;;;;;;4148790;28;19921;-65
2023/12/01 06:42:52;;;;;;;;;;;;;;;;;;4148899;28;19929;-66
2023/12/01 06:44:54;;;;;;;;;;;;;;;;;;4148804;28;19926;-66
2023/12/01 06:46:55;;;;;;;;;;;;;;;;;;4148574;28;19925;-66
2023/12/01 06:48:57;;;;;;;;;;;;;;;;;;4148990;28;20237;-66
2023/12/01 06:50:58;;;;;;;;;;;;;;;;;;4148455;28;20358;-66
2023/12/01 06:53:01;;;;;;;;;;;;;;;;;;4149096;28;20384;-65
2023/12/01 06:55:04;;;;;;;;;;;;;;;;;;4159326;28;19946;-66
2023/12/01 06:57:05;;;;;;;;;;;;;;;;;;4148702;28;19931;-66
2023/12/01 06:59:07;;;;;;;;;;;;;;;;;;4148531;28;19925;-65
2023/12/01 07:01:18;;;;;;;;;;;;;;;;;;4162804;28;19925;-65
2023/12/01 07:03:19;;;;;;;;;;;;;;;;;;4164120;28;19921;-65
2023/12/01 07:05:21;;;;;;;;;;;;;;;;;;4164860;28;20335;-66
2023/12/01 07:07:23;;;;;;;;;;;;;;;;;;4164567;28;20364;-65
2023/12/01 07:09:24;;;;;;;;;;;;;;;;;;4156923;28;19922;-65
2023/12/01 07:11:26;;;;;;;;;;;;;;;;;;4148184;28;20432;-66
2023/12/01 07:13:29;;;;;;;;;;;;;;;;;;4148199;28;19928;-65
2023/12/01 07:15:31;;;;;;;;;;;;;;;;;;4148319;28;20012;-65
2023/12/01 07:17:33;;;;;;;;;;;;;;;;;;4148344;28;19922;-66
2023/12/01 07:19:34;;;;;;;;;;;;;;;;;;4148744;28;19929;-66
2023/12/01 07:21:36;;;;;;;;;;;;;;;;;;4148071;28;19979;-65
2023/12/01 07:23:40;;;;;;;;;;;;;;;;;;4148038;28;19976;-66
2023/12/01 07:25:41;;;;;;;;;;;;;;;;;;4130983;28;19933;-66
2023/12/01 07:27:43;;;;;;;;;;;;;;;;;;4148381;28;19987;-66
2023/12/01 07:29:44;;;;;;;;;;;;;;;;;;4148071;28;20337;-66
2023/12/01 07:31:46;;;;;;;;;;;;;;;;;;4148098;28;19921;-66
2023/12/01 07:33:47;;;;;;;;;;;;;;;;;;4148125;28;19921;-66
2023/12/01 07:35:49;;;;;;;;;;;;;;;;;;4148341;28;19921;-66
2023/12/01 07:37:52;;;;;;;;;;;;;;;;;;4148304;28;19922;-66
2023/12/01 07:39:54;;;;;;;;;;;;;;;;;;4148375;28;19925;-66
2023/12/01 07:41:56;;;;;;;;;;;;;;;;;;4148502;28;19922;-66
2023/12/01 07:43:58;;;;;;;;;;;;;;;;;;4148112;28;19965;-66
2023/12/01 07:45:59;;;;;;;;;;;;;;;;;;4148226;28;19951;-66
2023/12/01 07:48:01;;;;;;;;;;;;;;;;;;4148323;28;19921;-66
2023/12/01 07:50:03;;;;;;;;;;;;;;;;;;4148216;28;19921;-65
2023/12/01 07:52:06;;;;;;;;;;;;;;;;;;4148144;28;20417;-65
2023/12/01 07:54:08;;;;;;;;;;;;;;;;;;4158190;28;20024;-66
2023/12/01 07:56:10;;;;;;;;;;;;;;;;;;4164394;28;20301;-65
2023/12/01 07:58:12;;;;;;;;;;;;;;;;;;4164500;28;19971;-65
2023/12/01 08:00:16;;;;;;;;;;;;;;;;;;4163843;28;20345;-66
2023/12/01 08:02:19;;;;;;;;;;;;;;;;;;4164395;28;19921;-66
2023/12/01 08:04:20;;;;;;;;;;;;;;;;;;4164044;28;19921;-65
2023/12/01 08:06:22;;;;;;;;;;;;;;;;;;4150901;28;19921;-66
2023/12/01 08:08:23;;;;;;;;;;;;;;;;;;4151825;28;19925;-66
2023/12/01 08:10:24;;;;;;;;;;;;;;;;;;4164095;28;19921;-66
2023/12/01 08:12:28;;;;;;;;;;;;;;;;;;4164316;28;19971;-65
2023/12/01 08:14:29;;;;;;;;;;;;;;;;;;4165014;28;19970;-65
2023/12/01 08:16:30;;;;;;;;;;;;;;;;;;4167109;28;20373;-66
2023/12/01 08:18:32;;;;;;;;;;;;;;;;;;4167009;28;20375;-66
2023/12/01 08:20:34;;;;;;;;;;;;;;;;;;4167081;28;19925;-66
2023/12/01 08:22:37;;;;;;;;;;;;;;;;;;4167337;28;19921;-65
2023/12/01 08:24:38;;;;;;;;;;;;;;;;;;4167213;28;20016;-65
2023/12/01 08:26:42;;;;;;;;;;;;;;;;;;4167073;28;19978;-66
2023/12/01 08:28:45;;;;;;;;;;;;;;;;;;4150820;28;19937;-66
2023/12/01 08:30:47;;;;;;;;;;;;;;;;;;4150827;28;20365;-66
2023/12/01 08:32:49;;;;;;;;;;;;;;;;;;4150837;28;19921;-66
2023/12/01 08:34:51;;;;;;;;;;;;;;;;;;4150796;28;19972;-66
2023/12/01 08:36:53;;;;;;;;;;;;;;;;;;4150503;28;19921;-66
2023/12/01 08:38:54;;;;;;;;;;;;;;;;;;4150292;28;19944;-65
2023/12/01 08:40:55;;;;;;;;;;;;;;;;;;4150386;28;19928;-66
2023/12/01 08:42:57;;;;;;;;;;;;;;;;;;4150803;28;20364;-66
2023/12/01 08:44:58;;;;;;;;;;;;;;;;;;4150483;28;19925;-66
2023/12/01 08:47:00;;;;;;;;;;;;;;;;;;4150371;28;20341;-66
2023/12/01 08:49:01;;;;;;;;;;;;;;;;;;4150603;28;20001;-66
2023/12/01 08:51:03;;;;;;;;;;;;;;;;;;4150294;28;19960;-65
2023/12/01 08:53:05;;;;;;;;;;;;;;;;;;4151747;28;20250;-65
2023/12/01 08:55:07;;;;;;;;;;;;;;;;;;4166647;28;19927;-66
2023/12/01 08:57:08;;;;;;;;;;;;;;;;;;4166699;28;19999;-65
2023/12/01 08:59:10;;;;;;;;;;;;;;;;;;4166701;28;19925;-65
2023/12/01 09:01:11;;;;;;;;;;;;;;;;;;4164388;28;19924;-66
2023/12/01 09:03:13;;;;;;;;;;;;;;;;;;4149870;28;20356;-66
2023/12/01 09:05:14;;;;;;;;;;;;;;;;;;4150403;28;19968;-66
2023/12/01 09:07:16;;;;;;;;;;;;;;;;;;4150306;28;19921;-66
2023/12/01 09:09:17;;;;;;;;;;;;;;;;;;4144099;28;20345;-65
2023/12/01 09:11:19;;;;;;;;;;;;;;;;;;4166475;28;19974;-66
2023/12/01 09:13:20;;;;;;;;;;;;;;;;;;4166208;28;19921;-66
2023/12/01 09:15:22;;;;;;;;;;;;;;;;;;4166482;28;19921;-66
2023/12/01 09:17:23;;;;;;;;;;;;;;;;;;4166444;28;20371;-67
2023/12/01 09:19:25;;;;;;;;;;;;;;;;;;4166250;28;20357;-66
2023/12/01 09:21:26;;;;;;;;;;;;;;;;;;4166136;28;19921;-66
2023/12/01 09:23:28;;;;;;;;;;;;;;;;;;4162544;28;19971;-66
2023/12/01 09:25:30;;;;;;;;;;;;;;;;;;4149512;28;19932;-65
2023/12/01 09:27:32;;;;;;;;;;;;;;;;;;4149891;28;20388;-66
2023/12/01 09:29:36;;;;;;;;;;;;;;;;;;4149585;28;19926;-66
2023/12/01 09:31:38;;;;;;;;;;;;;;;;;;4149978;28;19975;-66
2023/12/01 09:33:39;;;;;;;;;;;;;;;;;;4149562;28;19929;-66
2023/12/01 09:35:43;;;;;;;;;;;;;;;;;;4149886;28;20016;-66
2023/12/01 09:37:55;;;;;;;;;;;;;;;;;;4149766;28;19921;-66
2023/12/01 09:39:57;;;;;;;;;;;;;;;;;;4149667;28;19921;-66
2023/12/01 09:41:58;;;;;;;;;;;;;;;;;;4149937;28;19921;-66
2023/12/01 09:44:00;;;;;;;;;;;;;;;;;;4149318;28;19921;-66
2023/12/01 09:46:07;;;;;;;;;;;;;;;;;;4149512;28;19921;-66
2023/12/01 09:48:09;;;;;;;;;;;;;;;;;;4149737;28;20012;-66
2023/12/01 09:50:13;;;;;;;;;;;;;;;;;;4149521;28;19928;-66
2023/12/01 09:52:15;;;;;;;;;;;;;;;;;;4149433;28;19925;-67
2023/12/01 09:54:17;;;;;;;;;;;;;;;;;;4160395;28;20400;-66
2023/12/01 09:56:19;;;;;;;;;;;;;;;;;;4148281;28;19921;-66
2023/12/01 09:58:20;;;;;;;;;;;;;;;;;;4156571;28;20373;-67
2023/12/01 10:00:22;;;;;;;;;;;;;;;;;;4157348;28;19952;-68
2023/12/01 10:02:23;;;;;;;;;;;;;;;;;;4165537;28;20357;-69
2023/12/01 10:04:25;;;;;;;;;;;;;;;;;;4165290;28;20434;-69
2023/12/01 10:06:27;;;;;;;;;;;;;;;;;;4165588;28;19960;-69
2023/12/01 10:08:28;;;;;;;;;;;;;;;;;;4165406;28;19952;-69
2023/12/01 10:10:30;;;;;;;;;;;;;;;;;;4165574;28;19925;-69
2023/12/01 10:12:31;;;;;;;;;;;;;;;;;;4165421;28;20315;-69
2023/12/01 10:14:33;;;;;;;;;;;;;;;;;;4165122;28;19921;-69
2023/12/01 10:16:35;;;;;;;;;;;;;;;;;;4165526;28;20363;-69
2023/12/01 10:18:37;;;;;;;;;;;;;;;;;;4165132;28;19925;-69
2023/12/01 10:20:42;;;;;;;;;;;;;;;;;;4153952;28;20365;-69
2023/12/01 10:22:44;;;;;;;;;;;;;;;;;;4148882;28;19921;-69
2023/12/01 10:24:46;;;;;;;;;;;;;;;;;;4148733;28;19921;-69
2023/12/01 10:26:47;;;;;;;;;;;;;;;;;;4149116;28;19929;-69
2023/12/01 10:28:49;;;;;;;;;;;;;;;;;;4148925;28;19925;-68
2023/12/01 10:30:50;;;;;;;;;;;;;;;;;;4148766;28;19926;-69
2023/12/01 10:32:52;;;;;;;;;;;;;;;;;;4131303;28;19928;-69
2023/12/01 10:34:54;;;;;;;;;;;;;;;;;;4148961;28;19972;-69
2023/12/01 10:36:56;;;;;;;;;;;;;;;;;;4148367;28;19935;-68
2023/12/01 10:38:57;;;;;;;;;;;;;;;;;;4148670;28;20436;-69
2023/12/01 10:40:59;;;;;;;;;;;;;;;;;;4148431;28;19921;-68
2023/12/01 10:43:01;;;;;;;;;;;;;;;;;;4148921;28;20369;-69
2023/12/01 10:45:02;;;;;;;;;;;;;;;;;;4147925;28;20365;-69
2023/12/01 10:47:04;;;;;;;;;;;;;;;;;;4147542;28;19921;-69
2023/12/01 10:49:06;;;;;;;;;;;;;;;;;;4138309;28;19944;-68
2023/12/01 10:51:09;;;;;;;;;;;;;;;;;;4122544;28;19921;-69
2023/12/01 10:53:11;;;;;;;;;;;;;;;;;;4128041;28;20344;-68
2023/12/01 10:55:13;;;;;;;;;;;;;;;;;;4124769;28;19988;-68
2023/12/01 10:57:15;;;;;;;;;;;;;;;;;;4130182;28;19925;-68
2023/12/01 10:59:18;;;;;;;;;;;;;;;;;;4132382;28;19964;-68
2023/12/01 11:01:19;;;;;;;;;;;;;;;;;;4159831;28;20352;-68
2023/12/01 11:03:22;;;;;;;;;;;;;;;;;;4129085;28;20344;-68
2023/12/01 11:05:24;;;;;;;;;;;;;;;;;;4106404;28;19925;-68
2023/12/01 11:07:28;;;;;;;;;;;;;;;;;;4122786;28;19952;-68
2023/12/01 11:09:30;;;;;;;;;;;;;;;;;;4146279;28;20015;-68
2023/12/01 11:11:32;;;;;;;;;;;;;;;;;;4143712;28;19921;-69
2023/12/01 11:13:33;;;;;;;;;;;;;;;;;;4144107;28;19925;-68
2023/12/01 11:15:35;;;;;;;;;;;;;;;;;;4148284;28;19932;-69
2023/12/01 11:17:36;;;;;;;;;;;;;;;;;;4147845;28;19925;-68
2023/12/01 11:19:39;;;;;;;;;;;;;;;;;;4147234;28;19975;-69
2023/12/01 11:21:40;;;;;;;;;;;;;;;;;;4147804;28;19929;-68
2023/12/01 11:23:41;;;;;;;;;;;;;;;;;;4147515;28;20527;-68
2023/12/01 11:25:43;;;;;;;;;;;;;;;;;;4147713;28;19929;-68
2023/12/01 11:27:45;;;;;;;;;;;;;;;;;;4148392;28;20419;-69
2023/12/01 11:29:46;;;;;;;;;;;;;;;;;;4147374;28;19980;-68
2023/12/01 11:31:48;;;;;;;;;;;;;;;;;;4148147;28;19925;-68
2023/12/01 11:33:50;;;;;;;;;;;;;;;;;;4130219;28;20017;-69
2023/12/01 11:35:51;;;;;;;;;;;;;;;;;;4147826;28;19932;-68
2023/12/01 11:37:53;;;;;;;;;;;;;;;;;;4147606;28;20278;-68
2023/12/01 11:39:55;;;;;;;;;;;;;;;;;;4147937;28;19961;-68
2023/12/01 11:41:57;;;;;;;;;;;;;;;;;;4147920;28;19921;-69
2023/12/01 11:43:58;;;;;;;;;;;;;;;;;;4148043;28;20433;-69
2023/12/01 11:46:00;;;;;;;;;;;;;;;;;;4147136;28;19921;-69
2023/12/01 11:48:02;;;;;;;;;;;;;;;;;;4148318;28;20283;-69
2023/12/01 11:50:07;;;;;;;;;;;;;;;;;;4150360;28;20439;-68
2023/12/01 11:52:11;;;;;;;;;;;;;;;;;;4150384;28;20296;-69
2023/12/01 11:54:13;;;;;;;;;;;;;;;;;;4161749;28;20016;-69
2023/12/01 11:56:15;;;;;;;;;;;;;;;;;;4167675;28;20440;-69
2023/12/01 11:58:18;;;;;;;;;;;;;;;;;;4166384;28;19971;-68
2023/12/01 12:00:19;;;;;;;;;;;;;;;;;;4158021;28;19956;-68
2023/12/01 12:02:21;;;;;;;;;;;;;;;;;;4152460;28;19928;-68
2023/12/01 12:04:23;;;;;;;;;;;;;;;;;;4154214;28;20359;-68
2023/12/01 12:06:24;;;;;;;;;;;;;;;;;;4155103;28;19961;-68
2023/12/01 12:08:26;;;;;;;;;;;;;;;;;;4156092;28;20365;-68
2023/12/01 12:10:27;;;;;;;;;;;;;;;;;;4154492;28;19928;-68
2023/12/01 12:12:30;;;;;;;;;;;;;;;;;;4153858;28;19921;-68
2023/12/01 12:14:34;;;;;;;;;;;;;;;;;;4152610;28;19925;-68
2023/12/01 12:16:36;;;;;;;;;;;;;;;;;;4152307;28;20471;-68
2023/12/01 12:18:38;;;;;;;;;;;;;;;;;;4153575;28;19964;-67
2023/12/01 12:20:40;;;;;;;;;;;;;;;;;;4150887;28;20032;-66
2023/12/01 12:22:41;;;;;;;;;;;;;;;;;;4157273;28;19981;-66
2023/12/01 12:24:44;;;;;;;;;;;;;;;;;;4150584;28;20278;-67
2023/12/01 12:26:46;;;;;;;;;;;;;;;;;;4150660;28;19959;-67
2023/12/01 12:28:47;;;;;;;;;;;;;;;;;;4156423;28;19921;-68
2023/12/01 12:30:49;;;;;;;;;;;;;;;;;;4163973;28;19924;-67
2023/12/01 12:32:51;;;;;;;;;;;;;;;;;;4150475;28;20133;-66
2023/12/01 12:34:53;;;;;;;;;;;;;;;;;;4150766;28;19928;-66
2023/12/01 12:36:54;;;;;;;;;;;;;;;;;;4150767;28;19921;-65
2023/12/01 12:38:56;;;;;;;;;;;;;;;;;;4150451;28;19971;-67
2023/12/01 12:40:57;;;;;;;;;;;;;;;;;;4155959;28;19925;-66
2023/12/01 12:42:59;;;;;;;;;;;;;;;;;;4150433;28;19955;-66
2023/12/01 12:45:01;;;;;;;;;;;;;;;;;;4150342;28;19927;-66
2023/12/01 12:47:02;;;;;;;;;;;;;;;;;;4153094;28;19980;-66
2023/12/01 12:49:04;;;;;;;;;;;;;;;;;;4151489;28;19925;-65
2023/12/01 12:51:05;;;;;;;;;;;;;;;;;;4150270;28;19933;-67
2023/12/01 12:53:07;;;;;;;;;;;;;;;;;;4151976;28;19931;-67
2023/12/01 12:55:09;;;;;;;;;;;;;;;;;;4166818;28;19924;-66
2023/12/01 12:57:10;;;;;;;;;;;;;;;;;;4166831;28;20117;-66
2023/12/01 12:59:12;;;;;;;;;;;;;;;;;;4166539;28;19971;-68
2023/12/01 13:01:13;;;;;;;;;;;;;;;;;;4150166;28;19928;-66
2023/12/01 13:03:15;;;;;;;;;;;;;;;;;;4149705;28;19932;-66
2023/12/01 13:05:17;;;;;;;;;;;;;;;;;;4150166;28;19944;-66
2023/12/01 13:07:18;;;;;;;;;;;;;;;;;;4150014;28;19921;-66
2023/12/01 13:09:20;;;;;;;;;;;;;;;;;;4150861;28;19921;-66
2023/12/01 13:11:22;;;;;;;;;;;;;;;;;;4149830;28;19921;-66
2023/12/01 13:13:23;;;;;;;;;;;;;;;;;;4132379;28;19925;-66
2023/12/01 13:15:24;;;;;;;;;;;;;;;;;;4149881;28;19972;-66
2023/12/01 13:17:28;;;;;;;;;;;;;;;;;;4149845;28;20381;-66
2023/12/01 13:19:30;;;;;;;;;;;;;;;;;;4149499;28;19975;-65
2023/12/01 13:21:35;;;;;;;;;;;;;;;;;;4149625;28;19922;-66
2023/12/01 13:23:38;;;;;;;;;;;;;;;;;;4149646;28;20047;-66
2023/12/01 13:25:40;;;;;;;;;;;;;;;;;;4155220;28;19925;-65
2023/12/01 13:27:41;;;;;;;;;;;;;;;;;;4151703;28;19925;-65
2023/12/01 13:29:43;;;;;;;;;;;;;;;;;;4149366;28;19932;-66
2023/12/01 13:31:44;;;;;;;;;;;;;;;;;;4149436;28;20404;-65
2023/12/01 13:33:46;;;;;;;;;;;;;;;;;;4149360;28;19925;-66
2023/12/01 13:35:50;;;;;;;;;;;;;;;;;;4149308;28;19921;-66
2023/12/01 13:37:52;;;;;;;;;;;;;;;;;;4157021;28;19932;-66
2023/12/01 13:39:54;;;;;;;;;;;;;;;;;;4149482;28;19925;-65
2023/12/01 13:41:55;;;;;;;;;;;;;;;;;;4149560;28;19925;-76
2023/12/01 13:43:57;;;;;;;;;;;;;;;;;;4116553;28;19969;-80
2023/12/01 13:45:59;;;;;;;;;;;;;;;;;;4149373;28;19964;-72
2023/12/01 13:48:01;;;;;;;;;;;;;;;;;;4149783;28;19972;-78
2023/12/01 13:50:04;;;;;;;;;;;;;;;;;;4149586;28;20377;-79
2023/12/01 13:52:06;;;;;;;;;;;;;;;;;;4132269;28;20008;-76